createdAt,value
2023-01-27T00:04:35.529Z,78.17
2023-01-27T00:09:38.274Z,77.92
2023-01-27T00:14:40.992Z,77.67
2023-01-27T00:19:44.765Z,77.71
2023-01-27T00:24:47.672Z,77.88
2023-01-27T00:29:52.936Z,78.13
2023-01-27T00:34:55.673Z,78.13
2023-01-27T00:39:58.433Z,78.06
2023-01-27T00:45:19.996Z,78.29
2023-01-27T00:50:23.614Z,78.09
2023-01-27T00:55:26.432Z,78.08
2023-01-27T01:00:29.203Z,78.15
2023-01-27T01:05:31.944Z,77.92
2023-01-27T01:10:37.623Z,77.81
2023-01-27T01:15:40.944Z,77.39
2023-01-27T01:20:45.436Z,77.32
2023-01-27T01:25:55.445Z,77.52
2023-01-27T01:31:11.868Z,77.32
2023-01-27T01:36:17.825Z,77.52
2023-01-27T01:41:20.662Z,77.49
2023-01-27T01:46:23.625Z,77.38
2023-01-27T01:51:39.636Z,77.65
2023-01-27T01:56:56.056Z,77.79
2023-01-27T02:02:02.601Z,77.86
2023-01-27T02:07:13.303Z,77.93
2023-01-27T02:12:16.049Z,78.06
2023-01-27T02:17:19.017Z,78.26
2023-01-27T02:22:47.513Z,78.41
2023-01-27T02:27:50.283Z,78.66
2023-01-27T02:32:53.049Z,78.58
2023-01-27T02:37:55.785Z,78.70
2023-01-27T02:42:58.648Z,78.52
2023-01-27T02:48:01.457Z,78.78
2023-01-27T02:53:04.409Z,78.85
2023-01-27T02:58:07.212Z,79.28
2023-01-27T03:03:10.386Z,79.16
2023-01-27T03:08:13.291Z,79.13
2023-01-27T03:13:16.028Z,79.29
2023-01-27T03:18:19.235Z,79.58
2023-01-27T03:23:21.993Z,79.67
2023-01-27T03:28:24.743Z,79.80
2023-01-27T03:33:28.533Z,79.63
2023-01-27T03:38:50.030Z,79.58
2023-01-27T03:44:11.748Z,79.73
2023-01-27T03:49:14.559Z,79.58
2023-01-27T03:54:17.350Z,79.50
2023-01-27T03:59:20.221Z,79.75
2023-01-27T04:04:42.241Z,79.85
2023-01-27T04:09:45.069Z,79.62
2023-01-27T04:14:49.207Z,79.52
2023-01-27T04:19:51.965Z,79.38
2023-01-27T04:24:54.743Z,79.58
2023-01-27T04:29:57.540Z,79.86
2023-01-27T04:35:00.337Z,79.72
2023-01-27T04:40:03.680Z,80.07
2023-01-27T04:45:07.477Z,79.97
2023-01-27T04:50:11.420Z,79.91
2023-01-27T04:55:14.827Z,80.05
2023-01-27T05:00:19.092Z,80.11
2023-01-27T05:05:22.987Z,80.20
2023-01-27T05:10:26.530Z,80.34
2023-01-27T05:15:30.169Z,80.05
2023-01-27T05:20:33.188Z,80.28
2023-01-27T05:25:36.005Z,80.33
2023-01-27T05:30:39.299Z,80.78
2023-01-27T05:35:42.223Z,80.75
2023-01-27T05:40:44.989Z,80.65
2023-01-27T05:45:47.921Z,81.01
2023-01-27T05:50:56.014Z,81.12
2023-01-27T05:55:59.005Z,81.47
2023-01-27T06:01:27.704Z,81.63
2023-01-27T06:06:32.136Z,81.72
2023-01-27T06:11:35.186Z,81.74
2023-01-27T06:16:37.971Z,81.91
2023-01-27T06:21:40.775Z,82.11
2023-01-27T06:26:43.575Z,82.09
2023-01-27T06:31:46.429Z,81.99
2023-01-27T06:36:49.330Z,82.09
2023-01-27T06:41:53.411Z,82.25
2023-01-27T06:46:56.170Z,82.18
2023-01-27T06:51:59.020Z,82.42
2023-01-27T06:57:01.826Z,82.32
2023-01-27T07:02:04.619Z,82.50
2023-01-27T07:07:07.387Z,82.56
2023-01-27T07:12:10.190Z,82.65
2023-01-27T07:17:12.973Z,82.75
2023-01-27T07:22:16.845Z,82.51
2023-01-27T07:27:19.945Z,82.53
2023-01-27T07:32:22.772Z,82.45
2023-01-27T07:37:25.711Z,82.49
2023-01-27T07:42:28.503Z,82.62
2023-01-27T07:47:31.405Z,82.61
2023-01-27T07:52:34.417Z,82.53
2023-01-27T07:57:37.304Z,82.48
2023-01-27T08:02:40.132Z,82.28
2023-01-27T08:07:42.994Z,82.04
2023-01-27T08:12:46.008Z,81.24
2023-01-27T08:17:56.987Z,80.73
2023-01-27T08:22:59.882Z,79.95
2023-01-27T08:28:02.699Z,80.62
2023-01-27T08:33:05.474Z,80.40
2023-01-27T08:38:08.979Z,78.23
2023-01-27T08:43:13.179Z,77.65
2023-01-27T08:48:16.053Z,77.24
2023-01-27T08:53:21.959Z,76.90
2023-01-27T08:58:24.849Z,75.90
2023-01-27T09:03:28.616Z,76.27
2023-01-27T09:08:31.530Z,75.96
2023-01-27T09:13:34.441Z,75.29
2023-01-27T09:18:37.714Z,74.97
2023-01-27T09:23:40.605Z,74.43
2023-01-27T09:28:43.499Z,72.74
2023-01-27T09:33:46.369Z,74.10
2023-01-27T09:38:55.556Z,74.14
2023-01-27T09:44:22.213Z,73.60
2023-01-27T09:49:47.490Z,72.75
2023-01-27T09:55:08.895Z,72.38
2023-01-27T10:00:28.024Z,72.28
2023-01-27T10:05:55.604Z,72.31
2023-01-27T10:11:24.171Z,71.59
2023-01-27T10:16:39.677Z,70.10
2023-01-27T10:22:09.963Z,68.26
2023-01-27T10:27:23.451Z,69.11
2023-01-27T10:32:38.516Z,69.73
2023-01-27T10:38:21.074Z,68.75
2023-01-27T10:43:26.638Z,68.79
2023-01-27T10:48:58.665Z,66.07
2023-01-27T10:54:09.602Z,65.08
2023-01-27T10:59:22.103Z,65.08
2023-01-27T11:04:44.175Z,66.41
2023-01-27T11:10:01.336Z,66.08
2023-01-27T11:15:30.319Z,65.76
2023-01-27T11:20:40.421Z,64.62
2023-01-27T11:26:15.853Z,66.03
2023-01-27T11:32:24.857Z,65.59
2023-01-27T11:37:43.871Z,65.85
2023-01-27T11:42:46.654Z,65.38
2023-01-27T11:47:52.954Z,66.76
2023-01-27T11:53:12.743Z,66.34
2023-01-27T11:58:34.689Z,65.36
2023-01-27T12:04:08.070Z,65.32
2023-01-27T12:09:31.593Z,64.17
2023-01-27T12:14:34.318Z,66.28
2023-01-27T12:19:43.658Z,65.51
2023-01-27T12:25:13.706Z,66.07
2023-01-27T12:30:32.556Z,65.76
2023-01-27T12:35:35.675Z,65.99
2023-01-27T12:40:41.005Z,66.74
2023-01-27T12:45:44.186Z,66.69
2023-01-27T12:50:49.852Z,66.54
2023-01-27T12:56:12.418Z,67.00
2023-01-27T13:01:30.142Z,67.59
2023-01-27T13:06:55.337Z,67.57
2023-01-27T13:12:01.881Z,67.28
2023-01-27T13:17:04.700Z,68.69
2023-01-27T13:22:07.613Z,68.54
2023-01-27T13:27:16.238Z,69.35
2023-01-27T13:32:26.160Z,69.98
2023-01-27T13:37:40.857Z,71.06
2023-01-27T13:42:46.927Z,71.97
2023-01-27T13:48:03.740Z,72.62
2023-01-27T13:53:10.552Z,72.98
2023-01-27T13:58:45.726Z,73.59
2023-01-27T14:04:33.480Z,74.17
2023-01-27T14:10:14.280Z,74.54
2023-01-27T14:15:43.305Z,74.84
2023-01-27T14:20:58.149Z,75.05
2023-01-27T14:26:12.346Z,75.61
2023-01-27T14:31:20.151Z,75.82
2023-01-27T14:36:41.571Z,76.19
2023-01-27T14:42:12.720Z,76.75
2023-01-27T14:47:24.199Z,77.34
2023-01-27T14:52:42.019Z,77.92
2023-01-27T14:58:32.737Z,78.02
2023-01-27T15:04:19.379Z,78.58
2023-01-27T15:09:41.044Z,78.40
2023-01-27T15:15:24.646Z,78.50
2023-01-27T15:21:00.916Z,78.61
2023-01-27T15:26:06.670Z,79.11
2023-01-27T15:31:15.879Z,79.11
2023-01-27T15:36:19.021Z,78.71
2023-01-27T15:41:22.170Z,78.78
2023-01-27T15:46:32.871Z,78.79
2023-01-27T15:51:37.767Z,79.14
2023-01-27T15:56:47.162Z,78.99
2023-01-27T16:01:50.544Z,78.97
2023-01-27T16:07:04.632Z,79.07
2023-01-27T16:12:20.165Z,79.38
2023-01-27T16:17:25.434Z,79.31
2023-01-27T16:22:28.757Z,79.50
2023-01-27T16:27:48.496Z,79.85
2023-01-27T16:33:22.845Z,79.73
2023-01-27T16:38:32.039Z,79.95
2023-01-27T16:43:52.490Z,79.82
2023-01-27T16:48:56.323Z,79.94
2023-01-27T16:53:59.911Z,79.99
2023-01-27T16:59:26.707Z,80.18
2023-01-27T17:04:29.891Z,80.05
2023-01-27T17:09:35.299Z,80.29
2023-01-27T17:14:38.480Z,80.07
2023-01-27T17:19:41.452Z,80.26
2023-01-27T17:24:50.069Z,80.40
2023-01-27T17:30:08.463Z,80.54
2023-01-27T17:35:33.120Z,80.53
2023-01-27T17:40:39.205Z,81.12
2023-01-27T17:45:43.153Z,80.85
2023-01-27T17:50:45.929Z,81.44
2023-01-27T17:55:48.655Z,81.65
2023-01-27T18:00:51.539Z,81.60
2023-01-27T18:05:54.516Z,82.11
2023-01-27T18:11:12.297Z,82.33
2023-01-27T18:16:18.138Z,83.21
2023-01-27T18:21:25.953Z,83.12
2023-01-27T18:26:39.565Z,83.18
2023-01-27T18:31:57.126Z,83.65
2023-01-27T18:37:20.750Z,83.77
2023-01-27T18:42:28.525Z,84.00
2023-01-27T18:47:34.689Z,84.06
2023-01-27T18:52:38.425Z,84.26
2023-01-27T18:57:41.280Z,84.26
2023-01-27T19:02:48.223Z,84.07
2023-01-27T19:07:51.197Z,84.09
2023-01-27T19:12:59.015Z,84.24
2023-01-27T19:18:26.321Z,85.19
2023-01-27T19:23:29.470Z,85.06
2023-01-27T19:28:35.488Z,84.74
2023-01-27T19:33:38.917Z,84.86
2023-01-27T19:38:41.816Z,84.69
2023-01-27T19:43:47.281Z,84.63
2023-01-27T19:48:50.267Z,84.69
2023-01-27T19:53:53.062Z,84.88
2023-01-27T19:58:56.822Z,85.40
2023-01-27T20:03:59.609Z,85.54
2023-01-27T20:09:03.570Z,85.92
2023-01-27T20:14:15.361Z,86.00
2023-01-27T20:19:18.336Z,85.72
2023-01-27T20:24:21.117Z,85.52
2023-01-27T20:29:24.024Z,85.64
2023-01-27T20:34:26.780Z,85.87
2023-01-27T20:39:32.044Z,86.02
2023-01-27T20:44:34.799Z,85.87
2023-01-27T20:49:37.566Z,85.68
2023-01-27T20:54:40.328Z,85.83
2023-01-27T20:59:43.717Z,86.01
2023-01-27T21:04:46.567Z,85.98
2023-01-27T21:09:50.783Z,85.95
2023-01-27T21:14:53.604Z,86.20
2023-01-27T21:19:56.359Z,86.21
2023-01-27T21:24:59.142Z,86.20
2023-01-27T21:30:01.909Z,86.69
2023-01-27T21:35:05.255Z,86.68
2023-01-27T21:40:09.315Z,86.56
2023-01-27T21:45:13.279Z,86.84
2023-01-27T21:50:17.447Z,86.66
2023-01-27T21:55:23.122Z,86.85
2023-01-27T22:00:27.838Z,86.79
2023-01-27T22:05:32.403Z,86.76
2023-01-27T22:10:36.245Z,86.70
2023-01-27T22:15:39.034Z,86.75
2023-01-27T22:20:41.859Z,86.69
2023-01-27T22:25:52.405Z,86.62
2023-01-27T22:30:55.302Z,87.07
2023-01-27T22:36:00.723Z,87.18
2023-01-27T22:41:03.590Z,87.38
2023-01-27T22:46:06.399Z,87.32
2023-01-27T22:51:09.220Z,87.37
2023-01-27T22:56:12.054Z,87.12
2023-01-27T23:01:14.870Z,87.11
2023-01-27T23:06:17.667Z,87.21
2023-01-27T23:11:20.545Z,87.13
2023-01-27T23:16:23.712Z,87.12
2023-01-27T23:21:26.764Z,87.12
2023-01-27T23:26:29.507Z,87.31
2023-01-27T23:31:33.428Z,87.26
2023-01-27T23:36:37.761Z,87.36
2023-01-27T23:41:40.646Z,87.65
2023-01-27T23:46:45.817Z,87.56
2023-01-27T23:51:48.551Z,87.46
2023-01-27T23:58:29.709Z,87.48
